Current Weather

Barstow-Daggett

Daggett, California (KDAG)

Report from: Thursday, July 18, 2024 6:50 AM PDT
Current time: Thursday, July 18, 2024 8:01 AM PDT

Nearby weather – Weather history – Daily summaries
Weather forecast

Temperature28.3°C (82.9°F)
Heat index27.4°C (81.3°F)
Dew point7.2°C (45.0°F)
Winds 10 kts (5.1 m/s, 11.5 mph) West (260°)
Visibility10 mi. (16.1 km)
Clouds Sky clear
Altimeter29.96 in.Hg (1015 mB)
Relative humidity26 %
Density altitude1,751 ft. (534 m)
Sea-level pressure101.1 kPa (1011 mB, 29.86 in.Hg)
Remarks Fully automated report
Automated weather observing station with precipitation discriminator
Flight conditions Visual Meteorological Conditions
Raw dataKDAG 181350Z AUTO 26010KT 10SM CLR 28/07 A2996 RMK AO2 SLP111 T02830072
An error has occurred. This application may no longer respond until reloaded. Reload 🗙